Airfield :
LOGIN :

Register | Disclaimer

   EN    FR    IT 

 










Legend :    VFR   Marginal VFR   IFR   Intensive IFR   Very Intensive IFR
Visi :
Ceiling :
>= 8 km
>= 3000ft
5 to 8 km
1000 to 3000 ft
1500m to 5 km
500 to 1000 ft
800 to 1500m
200 to 500 ft
< 800m
< 200 ft
Symbols :   Thunderstorms  Fog  Heavy snow  Heavy precipitations  Wind > 20 kt
SIGMETs :     Misc.  Thunderstorms  Icing  Turbulence  Mountain Waves  Volcanic Ashes






- Airport Elevation : 459 ft
- IATA code : CER


LFRC - Cherbourg / Maupertus

CURRENT METAR :
  • 192100Z AUTO 14004KT CAVOK 06/04 Q1018

EXPIRED METARs :
  • 192030Z AUTO 13004KT CAVOK 06/04 Q1019
  • 192000Z AUTO 13005KT CAVOK 06/04 Q1019
  • 191930Z AUTO 12005KT CAVOK 07/04 Q1019
  • 191900Z AUTO 11006KT CAVOK 08/05 Q1019
  • 191830Z AUTO 11008KT CAVOK 09/04 Q1019

TAF TAF LFRC
Valid from the 19 at 15:00 until the 20 at 00:00 UTC


191400Z 1915/1924 07008KT CAVOK
BECMG 1921/1924 VRB05KT



MET'MAP, your aeronautical weather chart ! - Copyright ORBIFLY December 2007 - Disclaimer

ORBIFLY MET'MAP TEAM :

Programming & Development : Alexandra Zaïnal
Concept & original design : Baudouin d'Aumeries
Assistance for programming : Marc-Olivier Méhu
Technical & hardware support : Manuel Goepfert

Contact : metmap@orbifly.com




SOURCES & CREDITS :

   NOAA